createdAt,value
2022-08-02T00:04:58.519Z,17.73
2022-08-02T00:10:06.402Z,17.68
2022-08-02T00:15:16.332Z,17.64
2022-08-02T00:20:24.707Z,17.62
2022-08-02T00:25:31.618Z,17.60
2022-08-02T00:30:38.873Z,17.59
2022-08-02T00:35:47.399Z,17.56
2022-08-02T00:40:58.036Z,17.54
2022-08-02T00:46:05.467Z,17.51
2022-08-02T00:51:13.334Z,17.49
2022-08-02T00:56:20.329Z,17.48
2022-08-02T01:01:38.686Z,17.45
2022-08-02T01:07:12.129Z,17.42
2022-08-02T01:12:20.717Z,17.38
2022-08-02T01:17:36.535Z,17.33
2022-08-02T01:23:03.127Z,17.25
2022-08-02T01:28:34.730Z,17.17
2022-08-02T01:33:50.125Z,17.08
2022-08-02T01:38:59.401Z,16.97
2022-08-02T01:44:08.223Z,16.86
2022-08-02T01:49:19.954Z,16.78
2022-08-02T01:54:32.153Z,16.72
2022-08-02T01:59:41.115Z,16.64
2022-08-02T02:04:50.359Z,16.57
2022-08-02T02:10:01.099Z,16.51
2022-08-02T02:15:12.667Z,16.47
2022-08-02T02:20:22.030Z,16.44
2022-08-02T02:25:36.374Z,16.40
2022-08-02T02:30:53.444Z,16.34
2022-08-02T02:36:01.798Z,16.28
2022-08-02T02:41:09.299Z,16.23
2022-08-02T02:46:17.674Z,16.18
2022-08-02T02:51:25.432Z,16.12
2022-08-02T02:56:32.764Z,16.05
2022-08-02T03:01:56.605Z,15.99
2022-08-02T03:07:04.937Z,15.96
2022-08-02T03:12:13.033Z,15.92
2022-08-02T03:17:20.347Z,15.88
2022-08-02T03:22:27.407Z,15.83
2022-08-02T03:27:34.898Z,15.78
2022-08-02T03:32:45.217Z,15.72
2022-08-02T03:37:53.218Z,15.68
2022-08-02T03:43:00.478Z,15.64
2022-08-02T03:48:31.834Z,15.61
2022-08-02T03:53:36.497Z,15.58
2022-08-02T03:58:48.608Z,15.55
2022-08-02T04:03:56.540Z,15.54
2022-08-02T04:09:03.732Z,15.54
2022-08-02T04:14:12.756Z,15.54
2022-08-02T04:19:26.828Z,15.54
2022-08-02T04:24:39.710Z,15.56
2022-08-02T04:29:47.386Z,15.62
2022-08-02T04:35:18.164Z,15.71
2022-08-02T04:40:21.759Z,15.80
2022-08-02T04:45:30.755Z,15.89
2022-08-02T04:50:37.942Z,16.01
2022-08-02T04:55:45.181Z,16.15
2022-08-02T05:00:52.177Z,16.29
2022-08-02T05:06:00.793Z,16.46
2022-08-02T05:11:07.808Z,16.62
2022-08-02T05:16:14.894Z,16.77
2022-08-02T05:21:21.899Z,16.94
2022-08-02T05:26:28.855Z,17.11
2022-08-02T05:31:35.746Z,17.30
2022-08-02T05:36:42.681Z,17.48
2022-08-02T05:41:50.642Z,17.63
2022-08-02T05:46:57.567Z,17.74
2022-08-02T05:52:10.813Z,17.93
2022-08-02T05:57:27.623Z,18.20
2022-08-02T06:02:45.300Z,18.45
2022-08-02T06:07:52.729Z,18.63
2022-08-02T06:13:14.171Z,18.83
2022-08-02T06:18:27.779Z,19.05
2022-08-02T06:23:36.627Z,19.26
2022-08-02T06:28:45.108Z,19.44
2022-08-02T06:33:52.287Z,19.60
2022-08-02T06:39:07.260Z,19.67
2022-08-02T06:44:45.922Z,19.80
2022-08-02T06:49:51.412Z,19.90
2022-08-02T06:55:02.284Z,20.11
2022-08-02T07:00:12.552Z,20.45
2022-08-02T07:05:18.060Z,20.67
2022-08-02T07:10:25.332Z,20.79
2022-08-02T07:15:32.356Z,21.01
2022-08-02T07:20:39.407Z,21.19
2022-08-02T07:26:02.977Z,21.43
2022-08-02T07:31:11.706Z,21.48
2022-08-02T07:36:22.457Z,21.49
2022-08-02T07:41:30.310Z,21.54
2022-08-02T07:46:37.523Z,21.47
2022-08-02T07:51:44.674Z,21.46
2022-08-02T07:56:58.383Z,21.51
2022-08-02T08:02:06.412Z,21.42
2022-08-02T08:07:13.465Z,21.46
2022-08-02T08:12:20.498Z,21.68
2022-08-02T08:17:27.638Z,21.96
2022-08-02T08:22:34.664Z,22.28
2022-08-02T08:27:48.473Z,22.64
2022-08-02T08:32:56.347Z,22.90
2022-08-02T08:38:07.714Z,23.25
2022-08-02T08:43:16.879Z,23.33
2022-08-02T08:48:30.923Z,23.35
2022-08-02T08:53:44.534Z,23.55
2022-08-02T08:58:51.646Z,23.77
2022-08-02T09:03:58.672Z,23.97
2022-08-02T09:09:05.619Z,24.06
2022-08-02T09:14:13.483Z,24.03
2022-08-02T09:19:22.357Z,23.86
2022-08-02T09:24:31.740Z,23.76
2022-08-02T09:29:48.483Z,23.66
2022-08-02T09:35:10.004Z,23.61
2022-08-02T09:40:37.511Z,23.70
2022-08-02T09:45:45.451Z,23.88
2022-08-02T09:50:57.478Z,24.01
2022-08-02T09:56:05.295Z,24.18
2022-08-02T10:01:37.408Z,24.41
2022-08-02T10:06:45.618Z,24.54
2022-08-02T10:11:54.123Z,24.73
2022-08-02T10:17:01.283Z,24.93
2022-08-02T10:22:11.489Z,25.00
2022-08-02T10:27:21.339Z,25.17
2022-08-02T10:32:31.479Z,25.30
2022-08-02T10:37:40.465Z,25.52
2022-08-02T10:42:49.937Z,25.56
2022-08-02T10:48:06.205Z,25.65
2022-08-02T10:53:31.040Z,25.93
2022-08-02T10:58:37.912Z,26.02
2022-08-02T11:03:47.529Z,25.95
2022-08-02T11:09:33.332Z,26.00
2022-08-02T11:14:42.430Z,26.09
2022-08-02T11:20:20.546Z,26.29
2022-08-02T11:26:03.282Z,26.57
2022-08-02T11:31:04.531Z,26.71
2022-08-02T11:36:11.731Z,26.78
2022-08-02T11:41:46.498Z,27.06
2022-08-02T11:46:59.146Z,27.48
2022-08-02T11:52:08.527Z,27.44
2022-08-02T11:57:20.844Z,27.56
2022-08-02T12:02:31.633Z,28.15
2022-08-02T12:07:45.728Z,30.83
2022-08-02T12:12:56.382Z,34.11
2022-08-02T12:18:21.721Z,36.23
2022-08-02T12:23:29.282Z,35.72
2022-08-02T12:28:39.452Z,36.15
2022-08-02T12:33:52.175Z,35.75
2022-08-02T12:39:01.731Z,37.03
2022-08-02T12:44:19.908Z,38.61
2022-08-02T12:49:27.174Z,39.85
2022-08-02T12:54:42.530Z,41.39
2022-08-02T12:59:54.753Z,40.97
2022-08-02T13:05:03.216Z,41.98
2022-08-02T13:10:11.004Z,43.01
2022-08-02T13:15:46.595Z,44.14
2022-08-02T13:20:45.764Z,45.19
2022-08-02T13:25:54.754Z,46.42
2022-08-02T13:31:20.673Z,46.82
2022-08-02T13:36:28.477Z,46.46
2022-08-02T13:41:35.359Z,46.25
2022-08-02T13:46:45.744Z,46.50
2022-08-02T13:51:52.953Z,46.52
2022-08-02T13:56:59.974Z,46.29
2022-08-02T14:02:07.095Z,45.97
2022-08-02T14:07:14.058Z,45.02
2022-08-02T14:12:21.725Z,44.83
2022-08-02T14:17:29.009Z,44.87
2022-08-02T14:22:35.933Z,44.56
2022-08-02T14:27:43.067Z,44.51
2022-08-02T14:32:50.090Z,43.37
2022-08-02T14:37:57.152Z,42.22
2022-08-02T14:43:05.037Z,41.68
2022-08-02T14:48:13.752Z,42.04
2022-08-02T14:53:28.889Z,42.51
2022-08-02T14:58:46.445Z,42.48
2022-08-02T15:03:53.605Z,41.69
2022-08-02T15:09:00.803Z,42.22
2022-08-02T15:14:08.252Z,42.72
2022-08-02T15:19:15.087Z,42.84
2022-08-02T15:24:23.517Z,42.93
2022-08-02T15:29:30.405Z,43.06
2022-08-02T15:34:37.400Z,43.27
2022-08-02T15:39:44.591Z,42.10
2022-08-02T15:44:51.432Z,41.90
2022-08-02T15:49:58.783Z,42.09
2022-08-02T15:55:07.154Z,42.17
2022-08-02T16:00:18.461Z,41.39
2022-08-02T16:05:27.020Z,40.74
2022-08-02T16:10:34.656Z,40.92
2022-08-02T16:15:41.653Z,41.13
2022-08-02T16:20:48.701Z,40.98
2022-08-02T16:25:55.597Z,40.56
2022-08-02T16:31:10.919Z,40.18
2022-08-02T16:36:19.316Z,39.62
2022-08-02T16:41:50.862Z,39.38
2022-08-02T16:46:53.839Z,39.23
2022-08-02T16:52:00.917Z,38.93
2022-08-02T16:57:08.186Z,38.32
2022-08-02T17:02:18.451Z,37.69
2022-08-02T17:08:07.451Z,37.75
2022-08-02T17:12:53.686Z,37.57
2022-08-02T17:18:01.334Z,37.12
2022-08-02T17:23:09.021Z,36.55
2022-08-02T17:28:31.381Z,35.87
2022-08-02T17:33:40.578Z,35.09
2022-08-02T17:38:51.795Z,34.53
2022-08-02T17:43:58.987Z,34.03
2022-08-02T17:49:20.851Z,33.14
2022-08-02T17:54:27.875Z,32.03
2022-08-02T17:59:41.797Z,30.93
2022-08-02T18:04:50.212Z,30.12
2022-08-02T18:09:58.631Z,29.22
2022-08-02T18:15:06.793Z,28.37
2022-08-02T18:20:21.726Z,27.41
2022-08-02T18:25:37.192Z,26.67
2022-08-02T18:30:57.501Z,26.06
2022-08-02T18:36:08.931Z,25.58
2022-08-02T18:41:16.294Z,25.11
2022-08-02T18:46:30.150Z,24.62
2022-08-02T18:51:38.662Z,24.15
2022-08-02T18:56:50.419Z,23.64
2022-08-02T19:01:58.827Z,23.26
2022-08-02T19:07:09.393Z,22.97
2022-08-02T19:12:28.447Z,22.67
2022-08-02T19:17:55.510Z,22.38
2022-08-02T19:23:08.113Z,22.02
2022-08-02T19:28:15.979Z,21.74
2022-08-02T19:34:06.535Z,21.50
2022-08-02T19:39:01.334Z,21.30
2022-08-02T19:44:24.506Z,21.09
2022-08-02T19:49:39.913Z,20.83
2022-08-02T19:54:55.740Z,20.61
2022-08-02T20:00:03.473Z,20.44
2022-08-02T20:05:23.958Z,20.29
2022-08-02T20:10:34.662Z,20.15
2022-08-02T20:15:56.143Z,20.00
2022-08-02T20:21:03.713Z,19.86
2022-08-02T20:26:10.656Z,19.71
2022-08-02T20:31:17.688Z,19.56
2022-08-02T20:36:25.611Z,19.44
2022-08-02T20:41:36.847Z,19.32
2022-08-02T20:46:53.288Z,19.21
2022-08-02T20:52:02.401Z,19.08
2022-08-02T20:57:09.403Z,18.93
2022-08-02T21:02:16.743Z,18.80
2022-08-02T21:07:23.838Z,18.68
2022-08-02T21:12:31.453Z,18.59
2022-08-02T21:17:49.957Z,18.53
2022-08-02T21:23:19.920Z,18.47
2022-08-02T21:33:59.374Z,18.49
2022-08-02T21:39:11.442Z,18.47
2022-08-02T21:44:17.554Z,18.36
2022-08-02T21:50:09.291Z,18.28
2022-08-02T21:54:59.062Z,18.17
2022-08-02T22:00:11.738Z,18.10
2022-08-02T22:05:18.809Z,18.01
2022-08-02T22:10:25.813Z,17.90
2022-08-02T22:15:36.102Z,17.80
2022-08-02T22:20:48.968Z,17.67
2022-08-02T22:26:00.360Z,17.53
2022-08-02T22:31:07.823Z,17.40
2022-08-02T22:36:15.229Z,17.28
2022-08-02T22:41:22.640Z,17.18
2022-08-02T22:46:30.382Z,17.06
2022-08-02T22:51:38.857Z,16.95
2022-08-02T22:56:45.827Z,16.88
2022-08-02T22:59:10.496Z,18.48
2022-08-02T23:01:53.712Z,16.80
2022-08-02T23:07:00.894Z,16.73
2022-08-02T23:12:08.575Z,16.67
2022-08-02T23:17:33.161Z,16.62
2022-08-02T23:22:40.681Z,16.56
2022-08-02T23:27:50.683Z,16.48
2022-08-02T23:32:58.108Z,16.42
2022-08-02T23:38:05.268Z,16.32
2022-08-02T23:43:15.083Z,16.27
2022-08-02T23:48:22.911Z,16.20
2022-08-02T23:53:31.263Z,16.13
2022-08-02T23:58:38.518Z,16.06
